sensor_id;sensor_type;location;lat;lon;timestamp;P1;durP1;ratioP1;P2;durP2;ratioP2
80732;SDS011;70130;44.534;18.678;2023-08-31T00:01:13;30.52;;;13.93;;
80732;SDS011;70130;44.534;18.678;2023-08-31T00:03:39;31.77;;;14.05;;
80732;SDS011;70130;44.534;18.678;2023-08-31T00:06:05;28.10;;;13.65;;
80732;SDS011;70130;44.534;18.678;2023-08-31T00:08:32;26.73;;;14.45;;
80732;SDS011;70130;44.534;18.678;2023-08-31T00:11:02;25.55;;;13.48;;
80732;SDS011;70130;44.534;18.678;2023-08-31T00:13:28;25.15;;;12.93;;
80732;SDS011;70130;44.534;18.678;2023-08-31T00:15:54;25.50;;;12.20;;
80732;SDS011;70130;44.534;18.678;2023-08-31T00:18:23;24.80;;;13.57;;
80732;SDS011;70130;44.534;18.678;2023-08-31T00:20:52;24.10;;;12.48;;
80732;SDS011;70130;44.534;18.678;2023-08-31T00:23:21;21.02;;;11.07;;
80732;SDS011;70130;44.534;18.678;2023-08-31T00:25:47;21.08;;;11.20;;
80732;SDS011;70130;44.534;18.678;2023-08-31T00:28:16;20.73;;;10.85;;
80732;SDS011;70130;44.534;18.678;2023-08-31T00:30:43;21.98;;;11.23;;
80732;SDS011;70130;44.534;18.678;2023-08-31T00:33:16;20.85;;;10.57;;
80732;SDS011;70130;44.534;18.678;2023-08-31T00:35:45;23.23;;;12.30;;
80732;SDS011;70130;44.534;18.678;2023-08-31T00:38:13;22.95;;;12.45;;
80732;SDS011;70130;44.534;18.678;2023-08-31T00:40:42;24.10;;;13.02;;
80732;SDS011;70130;44.534;18.678;2023-08-31T00:43:15;25.58;;;12.88;;
80732;SDS011;70130;44.534;18.678;2023-08-31T00:45:44;20.67;;;12.23;;
80732;SDS011;70130;44.534;18.678;2023-08-31T00:48:14;23.80;;;12.65;;
80732;SDS011;70130;44.534;18.678;2023-08-31T00:50:42;21.05;;;12.25;;
80732;SDS011;70130;44.534;18.678;2023-08-31T00:53:12;23.95;;;11.98;;
80732;SDS011;70130;44.534;18.678;2023-08-31T00:55:38;17.92;;;11.50;;
80732;SDS011;70130;44.534;18.678;2023-08-31T00:58:05;20.85;;;11.18;;
80732;SDS011;70130;44.534;18.678;2023-08-31T01:08:50;21.60;;;12.10;;
80732;SDS011;70130;44.534;18.678;2023-08-31T01:11:24;22.02;;;12.40;;
80732;SDS011;70130;44.534;18.678;2023-08-31T01:14:08;22.80;;;12.15;;
80732;SDS011;70130;44.534;18.678;2023-08-31T01:16:40;20.52;;;11.98;;
80732;SDS011;70130;44.534;18.678;2023-08-31T01:19:14;23.58;;;11.90;;
80732;SDS011;70130;44.534;18.678;2023-08-31T01:21:51;22.83;;;11.13;;
80732;SDS011;70130;44.534;18.678;2023-08-31T01:24:20;26.25;;;13.18;;
80732;SDS011;70130;44.534;18.678;2023-08-31T01:26:51;21.35;;;12.05;;
80732;SDS011;70130;44.534;18.678;2023-08-31T01:29:20;23.67;;;12.60;;
80732;SDS011;70130;44.534;18.678;2023-08-31T01:31:49;22.30;;;11.35;;
80732;SDS011;70130;44.534;18.678;2023-08-31T01:34:17;22.95;;;12.00;;
80732;SDS011;70130;44.534;18.678;2023-08-31T01:36:44;23.15;;;11.65;;
80732;SDS011;70130;44.534;18.678;2023-08-31T01:39:20;20.80;;;12.15;;
80732;SDS011;70130;44.534;18.678;2023-08-31T01:41:54;21.83;;;11.60;;
80732;SDS011;70130;44.534;18.678;2023-08-31T01:44:23;17.67;;;12.02;;
80732;SDS011;70130;44.534;18.678;2023-08-31T01:46:53;23.08;;;12.52;;
80732;SDS011;70130;44.534;18.678;2023-08-31T01:49:26;19.85;;;11.45;;
80732;SDS011;70130;44.534;18.678;2023-08-31T01:51:51;26.58;;;13.18;;
80732;SDS011;70130;44.534;18.678;2023-08-31T01:54:20;23.25;;;11.82;;
80732;SDS011;70130;44.534;18.678;2023-08-31T01:56:49;26.40;;;14.05;;
80732;SDS011;70130;44.534;18.678;2023-08-31T01:59:17;24.55;;;13.52;;
80732;SDS011;70130;44.534;18.678;2023-08-31T02:01:46;20.58;;;11.75;;
80732;SDS011;70130;44.534;18.678;2023-08-31T02:04:11;24.38;;;12.75;;
80732;SDS011;70130;44.534;18.678;2023-08-31T02:06:40;23.00;;;12.88;;
80732;SDS011;70130;44.534;18.678;2023-08-31T02:09:09;19.85;;;12.63;;
80732;SDS011;70130;44.534;18.678;2023-08-31T02:11:38;28.55;;;12.90;;
80732;SDS011;70130;44.534;18.678;2023-08-31T02:14:07;23.02;;;12.00;;
80732;SDS011;70130;44.534;18.678;2023-08-31T02:16:36;24.13;;;13.38;;
80732;SDS011;70130;44.534;18.678;2023-08-31T02:19:04;23.30;;;12.52;;
80732;SDS011;70130;44.534;18.678;2023-08-31T02:21:30;25.95;;;13.45;;
80732;SDS011;70130;44.534;18.678;2023-08-31T02:23:58;26.85;;;14.02;;
80732;SDS011;70130;44.534;18.678;2023-08-31T02:26:27;25.58;;;14.23;;
80732;SDS011;70130;44.534;18.678;2023-08-31T02:28:55;27.15;;;13.90;;
80732;SDS011;70130;44.534;18.678;2023-08-31T02:31:21;24.60;;;13.70;;
80732;SDS011;70130;44.534;18.678;2023-08-31T02:33:46;27.02;;;13.10;;
80732;SDS011;70130;44.534;18.678;2023-08-31T02:36:12;23.50;;;13.27;;
80732;SDS011;70130;44.534;18.678;2023-08-31T02:38:40;22.58;;;13.15;;
80732;SDS011;70130;44.534;18.678;2023-08-31T02:41:09;24.52;;;13.25;;
80732;SDS011;70130;44.534;18.678;2023-08-31T02:43:38;25.60;;;13.07;;
80732;SDS011;70130;44.534;18.678;2023-08-31T02:46:07;24.38;;;12.43;;
80732;SDS011;70130;44.534;18.678;2023-08-31T02:48:36;26.40;;;13.27;;
80732;SDS011;70130;44.534;18.678;2023-08-31T02:51:01;22.83;;;11.85;;
80732;SDS011;70130;44.534;18.678;2023-08-31T02:53:31;23.25;;;12.23;;
80732;SDS011;70130;44.534;18.678;2023-08-31T02:55:57;25.80;;;13.18;;
80732;SDS011;70130;44.534;18.678;2023-08-31T02:58:26;24.55;;;12.50;;
80732;SDS011;70130;44.534;18.678;2023-08-31T03:00:54;25.83;;;12.48;;
80732;SDS011;70130;44.534;18.678;2023-08-31T03:03:24;24.30;;;11.80;;
80732;SDS011;70130;44.534;18.678;2023-08-31T03:05:54;27.00;;;12.85;;
80732;SDS011;70130;44.534;18.678;2023-08-31T03:08:20;26.75;;;13.13;;
80732;SDS011;70130;44.534;18.678;2023-08-31T03:10:45;25.15;;;12.40;;
80732;SDS011;70130;44.534;18.678;2023-08-31T03:13:13;26.08;;;13.27;;
80732;SDS011;70130;44.534;18.678;2023-08-31T03:15:39;27.92;;;13.75;;
80732;SDS011;70130;44.534;18.678;2023-08-31T03:18:08;22.45;;;12.18;;
80732;SDS011;70130;44.534;18.678;2023-08-31T03:20:34;27.75;;;12.23;;
80732;SDS011;70130;44.534;18.678;2023-08-31T03:22:59;22.95;;;13.15;;
80732;SDS011;70130;44.534;18.678;2023-08-31T03:25:26;26.13;;;12.30;;
80732;SDS011;70130;44.534;18.678;2023-08-31T03:27:52;25.42;;;12.05;;
80732;SDS011;70130;44.534;18.678;2023-08-31T03:30:18;22.10;;;10.88;;
80732;SDS011;70130;44.534;18.678;2023-08-31T03:32:46;23.92;;;11.70;;
80732;SDS011;70130;44.534;18.678;2023-08-31T03:35:12;22.92;;;11.07;;
80732;SDS011;70130;44.534;18.678;2023-08-31T03:37:41;21.65;;;10.40;;
80732;SDS011;70130;44.534;18.678;2023-08-31T03:40:06;20.10;;;9.93;;
80732;SDS011;70130;44.534;18.678;2023-08-31T03:42:35;22.25;;;10.70;;
80732;SDS011;70130;44.534;18.678;2023-08-31T03:45:04;22.58;;;10.15;;
80732;SDS011;70130;44.534;18.678;2023-08-31T03:47:30;17.75;;;10.07;;
80732;SDS011;70130;44.534;18.678;2023-08-31T03:49:58;16.10;;;9.38;;
80732;SDS011;70130;44.534;18.678;2023-08-31T03:52:27;13.98;;;8.60;;
80732;SDS011;70130;44.534;18.678;2023-08-31T03:54:52;16.27;;;9.13;;
80732;SDS011;70130;44.534;18.678;2023-08-31T03:57:21;12.73;;;7.45;;
80732;SDS011;70130;44.534;18.678;2023-08-31T03:59:51;14.00;;;8.27;;
80732;SDS011;70130;44.534;18.678;2023-08-31T04:02:16;16.27;;;9.27;;
80732;SDS011;70130;44.534;18.678;2023-08-31T04:04:45;18.25;;;9.68;;
80732;SDS011;70130;44.534;18.678;2023-08-31T04:07:16;18.67;;;9.55;;
80732;SDS011;70130;44.534;18.678;2023-08-31T04:09:41;18.48;;;9.40;;
80732;SDS011;70130;44.534;18.678;2023-08-31T04:12:10;17.55;;;9.07;;
80732;SDS011;70130;44.534;18.678;2023-08-31T04:14:36;14.75;;;8.57;;
80732;SDS011;70130;44.534;18.678;2023-08-31T04:17:01;19.73;;;9.93;;
80732;SDS011;70130;44.534;18.678;2023-08-31T04:19:31;17.17;;;9.32;;
80732;SDS011;70130;44.534;18.678;2023-08-31T04:21:57;12.70;;;8.15;;
80732;SDS011;70130;44.534;18.678;2023-08-31T04:24:26;12.93;;;7.82;;
80732;SDS011;70130;44.534;18.678;2023-08-31T04:26:52;17.27;;;9.43;;
80732;SDS011;70130;44.534;18.678;2023-08-31T04:29:21;18.48;;;9.48;;
80732;SDS011;70130;44.534;18.678;2023-08-31T04:31:46;14.07;;;7.95;;
80732;SDS011;70130;44.534;18.678;2023-08-31T04:34:14;14.27;;;8.18;;
80732;SDS011;70130;44.534;18.678;2023-08-31T04:36:41;14.35;;;7.63;;
80732;SDS011;70130;44.534;18.678;2023-08-31T04:39:09;12.75;;;7.88;;
80732;SDS011;70130;44.534;18.678;2023-08-31T04:41:35;13.35;;;8.02;;
80732;SDS011;70130;44.534;18.678;2023-08-31T04:44:03;14.18;;;8.32;;
80732;SDS011;70130;44.534;18.678;2023-08-31T04:46:29;14.13;;;8.20;;
80732;SDS011;70130;44.534;18.678;2023-08-31T04:48:58;13.85;;;7.70;;
80732;SDS011;70130;44.534;18.678;2023-08-31T04:51:43;15.75;;;7.45;;
80732;SDS011;70130;44.534;18.678;2023-08-31T04:54:09;13.95;;;7.88;;
80732;SDS011;70130;44.534;18.678;2023-08-31T04:56:35;15.30;;;7.82;;
80732;SDS011;70130;44.534;18.678;2023-08-31T04:59:01;15.95;;;8.48;;
80732;SDS011;70130;44.534;18.678;2023-08-31T05:01:29;14.15;;;8.60;;
80732;SDS011;70130;44.534;18.678;2023-08-31T05:03:55;12.35;;;7.78;;
80732;SDS011;70130;44.534;18.678;2023-08-31T05:06:21;15.38;;;7.35;;
80732;SDS011;70130;44.534;18.678;2023-08-31T05:08:47;16.80;;;8.05;;
80732;SDS011;70130;44.534;18.678;2023-08-31T05:11:16;13.30;;;7.40;;
80732;SDS011;70130;44.534;18.678;2023-08-31T05:13:48;11.85;;;7.25;;
80732;SDS011;70130;44.534;18.678;2023-08-31T05:16:13;11.82;;;7.30;;
80732;SDS011;70130;44.534;18.678;2023-08-31T05:18:39;10.82;;;6.55;;
80732;SDS011;70130;44.534;18.678;2023-08-31T05:21:07;12.18;;;7.60;;
80732;SDS011;70130;44.534;18.678;2023-08-31T05:23:33;11.48;;;7.32;;
80732;SDS011;70130;44.534;18.678;2023-08-31T05:25:59;15.02;;;6.72;;
80732;SDS011;70130;44.534;18.678;2023-08-31T05:28:26;10.52;;;7.05;;
80732;SDS011;70130;44.534;18.678;2023-08-31T05:30:53;10.38;;;6.88;;
80732;SDS011;70130;44.534;18.678;2023-08-31T05:33:21;8.10;;;6.28;;
80732;SDS011;70130;44.534;18.678;2023-08-31T05:35:50;11.57;;;6.68;;
80732;SDS011;70130;44.534;18.678;2023-08-31T05:38:16;11.57;;;6.40;;
80732;SDS011;70130;44.534;18.678;2023-08-31T05:40:42;10.77;;;6.72;;
80732;SDS011;70130;44.534;18.678;2023-08-31T05:43:14;8.35;;;6.07;;
80732;SDS011;70130;44.534;18.678;2023-08-31T05:45:41;11.87;;;6.77;;
80732;SDS011;70130;44.534;18.678;2023-08-31T05:48:07;12.07;;;7.18;;
80732;SDS011;70130;44.534;18.678;2023-08-31T05:50:33;11.25;;;7.38;;
80732;SDS011;70130;44.534;18.678;2023-08-31T05:52:58;11.23;;;7.05;;
80732;SDS011;70130;44.534;18.678;2023-08-31T05:55:24;10.13;;;6.45;;
80732;SDS011;70130;44.534;18.678;2023-08-31T05:57:50;8.80;;;6.53;;
80732;SDS011;70130;44.534;18.678;2023-08-31T06:00:15;9.25;;;6.60;;
80732;SDS011;70130;44.534;18.678;2023-08-31T06:02:42;10.52;;;7.18;;
80732;SDS011;70130;44.534;18.678;2023-08-31T06:05:10;9.07;;;6.80;;
80732;SDS011;70130;44.534;18.678;2023-08-31T06:07:37;12.15;;;6.93;;
80732;SDS011;70130;44.534;18.678;2023-08-31T06:10:04;13.95;;;7.30;;
80732;SDS011;70130;44.534;18.678;2023-08-31T06:12:30;12.35;;;7.15;;
80732;SDS011;70130;44.534;18.678;2023-08-31T06:14:56;12.75;;;7.47;;
80732;SDS011;70130;44.534;18.678;2023-08-31T06:17:22;11.73;;;6.07;;
80732;SDS011;70130;44.534;18.678;2023-08-31T06:19:47;10.77;;;6.07;;
80732;SDS011;70130;44.534;18.678;2023-08-31T06:22:13;11.27;;;6.47;;
80732;SDS011;70130;44.534;18.678;2023-08-31T06:24:38;11.27;;;6.20;;
80732;SDS011;70130;44.534;18.678;2023-08-31T06:27:04;8.82;;;6.47;;
80732;SDS011;70130;44.534;18.678;2023-08-31T06:29:30;9.90;;;6.45;;
80732;SDS011;70130;44.534;18.678;2023-08-31T06:31:55;10.88;;;6.20;;
80732;SDS011;70130;44.534;18.678;2023-08-31T06:34:21;10.70;;;5.95;;
80732;SDS011;70130;44.534;18.678;2023-08-31T06:36:47;11.45;;;6.55;;
80732;SDS011;70130;44.534;18.678;2023-08-31T06:39:12;10.80;;;6.53;;
80732;SDS011;70130;44.534;18.678;2023-08-31T06:41:38;10.15;;;6.53;;
80732;SDS011;70130;44.534;18.678;2023-08-31T06:44:03;9.85;;;6.78;;
80732;SDS011;70130;44.534;18.678;2023-08-31T06:46:30;8.40;;;6.18;;
80732;SDS011;70130;44.534;18.678;2023-08-31T06:48:59;12.75;;;5.47;;
80732;SDS011;70130;44.534;18.678;2023-08-31T06:51:25;10.25;;;5.43;;
80732;SDS011;70130;44.534;18.678;2023-08-31T06:53:51;8.25;;;5.18;;
80732;SDS011;70130;44.534;18.678;2023-08-31T06:56:18;7.32;;;5.05;;
80732;SDS011;70130;44.534;18.678;2023-08-31T06:58:44;7.20;;;4.75;;
80732;SDS011;70130;44.534;18.678;2023-08-31T07:01:11;6.13;;;4.18;;
80732;SDS011;70130;44.534;18.678;2023-08-31T07:03:37;7.70;;;4.38;;
80732;SDS011;70130;44.534;18.678;2023-08-31T07:06:03;7.72;;;4.80;;
80732;SDS011;70130;44.534;18.678;2023-08-31T07:08:28;7.63;;;3.90;;
80732;SDS011;70130;44.534;18.678;2023-08-31T07:10:55;9.93;;;4.90;;
80732;SDS011;70130;44.534;18.678;2023-08-31T07:13:21;9.07;;;4.85;;
80732;SDS011;70130;44.534;18.678;2023-08-31T07:15:47;8.48;;;5.82;;
80732;SDS011;70130;44.534;18.678;2023-08-31T07:18:14;10.18;;;5.78;;
80732;SDS011;70130;44.534;18.678;2023-08-31T07:20:39;8.45;;;6.00;;
80732;SDS011;70130;44.534;18.678;2023-08-31T07:23:05;6.75;;;5.10;;
80732;SDS011;70130;44.534;18.678;2023-08-31T07:25:30;10.98;;;4.95;;
80732;SDS011;70130;44.534;18.678;2023-08-31T07:27:56;8.88;;;5.60;;
80732;SDS011;70130;44.534;18.678;2023-08-31T07:30:21;8.40;;;5.53;;
80732;SDS011;70130;44.534;18.678;2023-08-31T07:32:47;7.97;;;5.97;;
80732;SDS011;70130;44.534;18.678;2023-08-31T07:35:12;16.20;;;5.25;;
80732;SDS011;70130;44.534;18.678;2023-08-31T07:37:38;7.03;;;4.60;;
80732;SDS011;70130;44.534;18.678;2023-08-31T07:40:04;8.45;;;4.85;;
80732;SDS011;70130;44.534;18.678;2023-08-31T07:42:34;9.00;;;4.97;;
80732;SDS011;70130;44.534;18.678;2023-08-31T07:45:00;9.73;;;4.68;;
80732;SDS011;70130;44.534;18.678;2023-08-31T07:47:25;9.48;;;4.47;;
80732;SDS011;70130;44.534;18.678;2023-08-31T07:49:51;4.72;;;3.85;;
80732;SDS011;70130;44.534;18.678;2023-08-31T07:52:16;8.95;;;5.00;;
80732;SDS011;70130;44.534;18.678;2023-08-31T07:54:42;18.75;;;8.90;;
80732;SDS011;70130;44.534;18.678;2023-08-31T07:57:07;18.48;;;11.07;;
80732;SDS011;70130;44.534;18.678;2023-08-31T07:59:33;20.27;;;12.85;;
80732;SDS011;70130;44.534;18.678;2023-08-31T08:01:58;20.55;;;11.35;;
80732;SDS011;70130;44.534;18.678;2023-08-31T08:04:24;26.73;;;15.00;;
80732;SDS011;70130;44.534;18.678;2023-08-31T08:06:51;26.40;;;14.75;;
80732;SDS011;70130;44.534;18.678;2023-08-31T08:09:16;26.48;;;15.35;;
80732;SDS011;70130;44.534;18.678;2023-08-31T08:11:42;30.10;;;16.80;;
80732;SDS011;70130;44.534;18.678;2023-08-31T08:14:08;28.10;;;15.88;;
80732;SDS011;70130;44.534;18.678;2023-08-31T08:16:34;24.52;;;14.00;;
80732;SDS011;70130;44.534;18.678;2023-08-31T08:19:00;22.70;;;14.73;;
80732;SDS011;70130;44.534;18.678;2023-08-31T08:21:26;25.23;;;14.00;;
80732;SDS011;70130;44.534;18.678;2023-08-31T08:23:52;24.17;;;13.27;;
80732;SDS011;70130;44.534;18.678;2023-08-31T08:26:18;25.85;;;14.20;;
80732;SDS011;70130;44.534;18.678;2023-08-31T08:28:43;22.52;;;14.40;;
80732;SDS011;70130;44.534;18.678;2023-08-31T08:31:09;22.80;;;13.85;;
80732;SDS011;70130;44.534;18.678;2023-08-31T08:33:34;26.65;;;13.00;;
80732;SDS011;70130;44.534;18.678;2023-08-31T08:36:00;21.10;;;13.63;;
80732;SDS011;70130;44.534;18.678;2023-08-31T08:38:25;20.60;;;12.68;;
80732;SDS011;70130;44.534;18.678;2023-08-31T08:40:51;19.85;;;11.70;;
80732;SDS011;70130;44.534;18.678;2023-08-31T08:43:19;16.95;;;10.73;;
80732;SDS011;70130;44.534;18.678;2023-08-31T08:45:52;15.23;;;10.50;;
80732;SDS011;70130;44.534;18.678;2023-08-31T08:48:18;17.25;;;8.63;;
80732;SDS011;70130;44.534;18.678;2023-08-31T08:50:45;11.50;;;7.80;;
80732;SDS011;70130;44.534;18.678;2023-08-31T08:53:11;15.55;;;7.63;;
80732;SDS011;70130;44.534;18.678;2023-08-31T08:55:40;11.15;;;7.97;;
80732;SDS011;70130;44.534;18.678;2023-08-31T08:58:06;12.23;;;7.55;;
80732;SDS011;70130;44.534;18.678;2023-08-31T09:00:32;11.10;;;6.55;;
80732;SDS011;70130;44.534;18.678;2023-08-31T09:02:58;8.18;;;5.57;;
80732;SDS011;70130;44.534;18.678;2023-08-31T09:05:26;7.50;;;4.85;;
80732;SDS011;70130;44.534;18.678;2023-08-31T09:08:01;5.85;;;4.05;;
80732;SDS011;70130;44.534;18.678;2023-08-31T09:10:32;7.07;;;4.35;;
80732;SDS011;70130;44.534;18.678;2023-08-31T09:13:04;5.57;;;3.08;;
80732;SDS011;70130;44.534;18.678;2023-08-31T09:15:39;4.85;;;2.45;;
80732;SDS011;70130;44.534;18.678;2023-08-31T09:18:06;1.95;;;1.55;;
80732;SDS011;70130;44.534;18.678;2023-08-31T09:20:46;3.95;;;2.00;;
80732;SDS011;70130;44.534;18.678;2023-08-31T09:25:43;7.63;;;2.90;;
80732;SDS011;70130;44.534;18.678;2023-08-31T09:28:09;11.77;;;4.00;;
80732;SDS011;70130;44.534;18.678;2023-08-31T09:30:38;15.55;;;4.10;;
80732;SDS011;70130;44.534;18.678;2023-08-31T09:33:06;11.53;;;4.10;;
80732;SDS011;70130;44.534;18.678;2023-08-31T09:35:33;6.57;;;4.43;;
80732;SDS011;70130;44.534;18.678;2023-08-31T09:38:03;8.15;;;4.18;;
80732;SDS011;70130;44.534;18.678;2023-08-31T09:40:32;7.80;;;4.15;;
80732;SDS011;70130;44.534;18.678;2023-08-31T09:42:57;6.60;;;3.85;;
80732;SDS011;70130;44.534;18.678;2023-08-31T09:45:29;11.07;;;4.10;;
80732;SDS011;70130;44.534;18.678;2023-08-31T09:47:57;5.65;;;3.55;;
80732;SDS011;70130;44.534;18.678;2023-08-31T09:50:24;9.07;;;3.70;;
80732;SDS011;70130;44.534;18.678;2023-08-31T09:52:51;6.40;;;4.07;;
80732;SDS011;70130;44.534;18.678;2023-08-31T09:55:21;6.00;;;3.75;;
80732;SDS011;70130;44.534;18.678;2023-08-31T09:57:58;6.10;;;3.70;;
80732;SDS011;70130;44.534;18.678;2023-08-31T10:00:28;5.57;;;3.58;;
80732;SDS011;70130;44.534;18.678;2023-08-31T10:02:56;6.80;;;3.58;;
80732;SDS011;70130;44.534;18.678;2023-08-31T10:05:25;4.68;;;3.58;;
80732;SDS011;70130;44.534;18.678;2023-08-31T10:07:52;4.15;;;2.30;;
80732;SDS011;70130;44.534;18.678;2023-08-31T10:10:18;5.97;;;2.35;;
80732;SDS011;70130;44.534;18.678;2023-08-31T10:12:45;3.65;;;2.08;;
80732;SDS011;70130;44.534;18.678;2023-08-31T10:15:19;4.72;;;2.10;;
80732;SDS011;70130;44.534;18.678;2023-08-31T10:17:45;4.43;;;2.00;;
80732;SDS011;70130;44.534;18.678;2023-08-31T10:20:12;4.05;;;2.63;;
80732;SDS011;70130;44.534;18.678;2023-08-31T10:22:41;3.15;;;1.45;;
80732;SDS011;70130;44.534;18.678;2023-08-31T10:25:07;5.05;;;1.92;;
80732;SDS011;70130;44.534;18.678;2023-08-31T10:27:39;1.73;;;1.00;;
80732;SDS011;70130;44.534;18.678;2023-08-31T10:30:20;2.70;;;1.92;;
80732;SDS011;70130;44.534;18.678;2023-08-31T10:35:50;3.67;;;2.20;;
80732;SDS011;70130;44.534;18.678;2023-08-31T10:38:28;3.58;;;2.00;;
80732;SDS011;70130;44.534;18.678;2023-08-31T10:41:40;3.50;;;1.77;;
80732;SDS011;70130;44.534;18.678;2023-08-31T10:43:54;5.60;;;1.98;;
80732;SDS011;70130;44.534;18.678;2023-08-31T10:46:28;5.82;;;2.05;;
80732;SDS011;70130;44.534;18.678;2023-08-31T10:51:26;5.22;;;2.20;;
80732;SDS011;70130;44.534;18.678;2023-08-31T10:53:52;3.47;;;2.55;;
80732;SDS011;70130;44.534;18.678;2023-08-31T10:56:29;2.42;;;1.70;;
80732;SDS011;70130;44.534;18.678;2023-08-31T10:58:58;5.13;;;2.08;;
80732;SDS011;70130;44.534;18.678;2023-08-31T11:04:28;3.95;;;2.40;;
80732;SDS011;70130;44.534;18.678;2023-08-31T11:07:13;5.82;;;2.10;;
80732;SDS011;70130;44.534;18.678;2023-08-31T11:09:39;3.92;;;2.00;;
80732;SDS011;70130;44.534;18.678;2023-08-31T11:12:06;4.28;;;2.92;;
80732;SDS011;70130;44.534;18.678;2023-08-31T11:14:32;5.78;;;2.83;;
80732;SDS011;70130;44.534;18.678;2023-08-31T11:16:58;6.53;;;3.10;;
80732;SDS011;70130;44.534;18.678;2023-08-31T11:19:25;6.07;;;3.15;;
80732;SDS011;70130;44.534;18.678;2023-08-31T11:21:51;4.50;;;2.55;;
80732;SDS011;70130;44.534;18.678;2023-08-31T11:24:17;4.70;;;2.88;;
80732;SDS011;70130;44.534;18.678;2023-08-31T11:26:42;6.50;;;2.42;;
80732;SDS011;70130;44.534;18.678;2023-08-31T11:29:08;3.50;;;1.85;;
80732;SDS011;70130;44.534;18.678;2023-08-31T11:31:40;4.85;;;2.50;;
80732;SDS011;70130;44.534;18.678;2023-08-31T11:34:05;13.23;;;8.00;;
80732;SDS011;70130;44.534;18.678;2023-08-31T11:36:32;6.20;;;3.45;;
80732;SDS011;70130;44.534;18.678;2023-08-31T11:38:58;6.30;;;3.17;;
80732;SDS011;70130;44.534;18.678;2023-08-31T11:41:23;11.88;;;3.80;;
80732;SDS011;70130;44.534;18.678;2023-08-31T11:43:49;10.73;;;3.40;;
80732;SDS011;70130;44.534;18.678;2023-08-31T11:46:16;9.35;;;3.38;;
80732;SDS011;70130;44.534;18.678;2023-08-31T11:48:43;8.40;;;4.35;;
80732;SDS011;70130;44.534;18.678;2023-08-31T11:51:10;10.38;;;4.05;;
80732;SDS011;70130;44.534;18.678;2023-08-31T11:53:36;11.27;;;4.35;;
80732;SDS011;70130;44.534;18.678;2023-08-31T11:56:02;11.57;;;5.00;;
80732;SDS011;70130;44.534;18.678;2023-08-31T11:58:28;12.45;;;5.13;;
80732;SDS011;70130;44.534;18.678;2023-08-31T12:00:54;13.25;;;4.47;;
80732;SDS011;70130;44.534;18.678;2023-08-31T12:03:21;14.80;;;5.80;;
80732;SDS011;70130;44.534;18.678;2023-08-31T12:05:47;11.68;;;4.90;;
80732;SDS011;70130;44.534;18.678;2023-08-31T12:08:14;12.30;;;5.53;;
80732;SDS011;70130;44.534;18.678;2023-08-31T12:10:41;11.00;;;4.88;;
80732;SDS011;70130;44.534;18.678;2023-08-31T12:13:16;8.98;;;4.90;;
80732;SDS011;70130;44.534;18.678;2023-08-31T12:15:41;8.63;;;4.78;;
80732;SDS011;70130;44.534;18.678;2023-08-31T12:18:10;10.93;;;4.80;;
80732;SDS011;70130;44.534;18.678;2023-08-31T12:20:47;11.30;;;4.35;;
80732;SDS011;70130;44.534;18.678;2023-08-31T12:23:13;10.63;;;4.43;;
80732;SDS011;70130;44.534;18.678;2023-08-31T12:25:48;7.57;;;3.85;;
80732;SDS011;70130;44.534;18.678;2023-08-31T12:28:16;9.15;;;3.00;;
80732;SDS011;70130;44.534;18.678;2023-08-31T12:30:42;4.38;;;2.45;;
80732;SDS011;70130;44.534;18.678;2023-08-31T12:35:38;4.80;;;2.85;;
80732;SDS011;70130;44.534;18.678;2023-08-31T12:38:04;5.65;;;3.80;;
80732;SDS011;70130;44.534;18.678;2023-08-31T12:40:29;4.72;;;3.22;;
80732;SDS011;70130;44.534;18.678;2023-08-31T12:42:55;7.47;;;4.47;;
80732;SDS011;70130;44.534;18.678;2023-08-31T12:45:20;6.93;;;4.28;;
80732;SDS011;70130;44.534;18.678;2023-08-31T12:47:46;6.05;;;4.13;;
80732;SDS011;70130;44.534;18.678;2023-08-31T12:50:13;5.43;;;3.45;;
80732;SDS011;70130;44.534;18.678;2023-08-31T12:52:38;5.20;;;3.22;;
80732;SDS011;70130;44.534;18.678;2023-08-31T12:57:38;6.70;;;3.88;;
80732;SDS011;70130;44.534;18.678;2023-08-31T13:00:04;6.13;;;4.72;;
80732;SDS011;70130;44.534;18.678;2023-08-31T13:02:30;7.38;;;4.63;;
80732;SDS011;70130;44.534;18.678;2023-08-31T13:04:57;6.28;;;3.88;;
80732;SDS011;70130;44.534;18.678;2023-08-31T13:07:25;5.88;;;4.18;;
80732;SDS011;70130;44.534;18.678;2023-08-31T13:09:50;5.93;;;3.35;;
80732;SDS011;70130;44.534;18.678;2023-08-31T13:12:16;10.07;;;4.80;;
80732;SDS011;70130;44.534;18.678;2023-08-31T13:14:43;5.22;;;4.38;;
80732;SDS011;70130;44.534;18.678;2023-08-31T13:17:09;11.65;;;6.38;;
80732;SDS011;70130;44.534;18.678;2023-08-31T13:19:34;5.53;;;5.03;;
80732;SDS011;70130;44.534;18.678;2023-08-31T13:22:00;9.45;;;6.43;;
80732;SDS011;70130;44.534;18.678;2023-08-31T13:24:25;8.85;;;6.32;;
80732;SDS011;70130;44.534;18.678;2023-08-31T13:26:51;9.75;;;6.70;;
80732;SDS011;70130;44.534;18.678;2023-08-31T13:29:16;14.88;;;7.72;;
80732;SDS011;70130;44.534;18.678;2023-08-31T13:31:42;9.82;;;7.50;;
80732;SDS011;70130;44.534;18.678;2023-08-31T13:34:07;13.05;;;7.93;;
80732;SDS011;70130;44.534;18.678;2023-08-31T13:36:33;6.63;;;5.95;;
80732;SDS011;70130;44.534;18.678;2023-08-31T13:38:59;11.85;;;6.80;;
80732;SDS011;70130;44.534;18.678;2023-08-31T13:41:25;11.68;;;8.48;;
80732;SDS011;70130;44.534;18.678;2023-08-31T13:43:50;17.42;;;10.68;;
80732;SDS011;70130;44.534;18.678;2023-08-31T13:46:17;20.08;;;13.65;;
80732;SDS011;70130;44.534;18.678;2023-08-31T13:48:43;17.33;;;14.48;;
80732;SDS011;70130;44.534;18.678;2023-08-31T13:51:09;17.60;;;14.32;;
80732;SDS011;70130;44.534;18.678;2023-08-31T13:53:35;19.27;;;16.05;;
80732;SDS011;70130;44.534;18.678;2023-08-31T13:56:00;16.05;;;13.52;;
80732;SDS011;70130;44.534;18.678;2023-08-31T13:58:26;18.50;;;13.80;;
80732;SDS011;70130;44.534;18.678;2023-08-31T14:00:52;16.33;;;14.63;;
80732;SDS011;70130;44.534;18.678;2023-08-31T14:03:18;15.38;;;13.65;;
80732;SDS011;70130;44.534;18.678;2023-08-31T14:05:47;15.98;;;14.27;;
80732;SDS011;70130;44.534;18.678;2023-08-31T14:08:14;18.45;;;13.13;;
80732;SDS011;70130;44.534;18.678;2023-08-31T14:10:39;18.15;;;13.55;;
80732;SDS011;70130;44.534;18.678;2023-08-31T14:13:05;14.02;;;12.73;;
80732;SDS011;70130;44.534;18.678;2023-08-31T14:15:32;14.20;;;12.07;;
80732;SDS011;70130;44.534;18.678;2023-08-31T14:17:57;13.20;;;11.90;;
80732;SDS011;70130;44.534;18.678;2023-08-31T14:20:23;12.00;;;10.95;;
80732;SDS011;70130;44.534;18.678;2023-08-31T14:22:49;16.48;;;13.10;;
80732;SDS011;70130;44.534;18.678;2023-08-31T14:25:15;14.63;;;12.23;;
80732;SDS011;70130;44.534;18.678;2023-08-31T14:27:42;14.45;;;13.15;;
80732;SDS011;70130;44.534;18.678;2023-08-31T14:30:08;13.80;;;12.40;;
80732;SDS011;70130;44.534;18.678;2023-08-31T14:32:34;13.82;;;12.10;;
80732;SDS011;70130;44.534;18.678;2023-08-31T14:35:00;16.80;;;13.45;;
80732;SDS011;70130;44.534;18.678;2023-08-31T14:37:25;16.52;;;12.77;;
80732;SDS011;70130;44.534;18.678;2023-08-31T14:39:51;15.77;;;12.23;;
80732;SDS011;70130;44.534;18.678;2023-08-31T14:42:17;13.65;;;11.52;;
80732;SDS011;70130;44.534;18.678;2023-08-31T14:44:45;14.07;;;11.60;;
80732;SDS011;70130;44.534;18.678;2023-08-31T14:47:12;13.25;;;11.75;;